createdAt,value
2018-02-14T00:02:19.187Z,-0.80
2018-02-14T00:04:46.178Z,-0.90
2018-02-14T00:07:12.508Z,-0.90
2018-02-14T00:09:38.767Z,-0.90
2018-02-14T00:12:05.044Z,-0.90
2018-02-14T00:14:31.320Z,-0.90
2018-02-14T00:16:57.605Z,-0.90
2018-02-14T00:19:23.879Z,-0.90
2018-02-14T00:21:50.140Z,-1.00
2018-02-14T00:24:17.151Z,-1.00
2018-02-14T00:26:43.420Z,-1.00
2018-02-14T00:29:10.411Z,-1.00
2018-02-14T00:31:36.704Z,-1.10
2018-02-14T00:34:02.967Z,-1.10
2018-02-14T00:36:29.268Z,-1.20
2018-02-14T00:38:55.544Z,-1.20
2018-02-14T00:41:21.800Z,-1.20
2018-02-14T00:43:48.847Z,-1.00
2018-02-14T00:46:15.864Z,-1.10
2018-02-14T00:48:42.165Z,-1.10
2018-02-14T00:51:08.424Z,-1.00
2018-02-14T00:53:34.707Z,-1.10
2018-02-14T00:56:00.968Z,-1.10
2018-02-14T00:58:27.253Z,-1.20
2018-02-14T01:00:53.504Z,-1.20
2018-02-14T01:03:19.797Z,-1.20
2018-02-14T01:05:47.081Z,-1.20
2018-02-14T01:08:13.384Z,-1.20
2018-02-14T01:10:40.430Z,-1.30
2018-02-14T01:13:06.737Z,-1.40
2018-02-14T01:15:32.989Z,-1.30
2018-02-14T01:18:00.026Z,-1.20
2018-02-14T01:20:33.027Z,-1.20
2018-02-14T01:22:59.307Z,-1.20
2018-02-14T01:25:25.597Z,-1.30
2018-02-14T01:27:52.594Z,-1.40
2018-02-14T01:30:18.855Z,-1.50
2018-02-14T01:32:45.868Z,-1.50
2018-02-14T01:35:12.146Z,-1.50
2018-02-14T01:37:38.409Z,-1.40
2018-02-14T01:40:04.716Z,-1.50
2018-02-14T01:42:30.968Z,-1.40
2018-02-14T01:44:57.256Z,-1.50
2018-02-14T01:47:24.269Z,-1.50
2018-02-14T01:49:51.287Z,-1.40
2018-02-14T01:52:17.574Z,-1.50
2018-02-14T01:54:43.850Z,-1.60
2018-02-14T01:57:10.103Z,-1.80
2018-02-14T01:59:36.376Z,-1.80
2018-02-14T02:02:02.658Z,-1.90
2018-02-14T02:04:29.072Z,-1.80
2018-02-14T02:06:55.320Z,-1.90
2018-02-14T02:09:21.752Z,-1.80
2018-02-14T02:11:48.018Z,-2.00
2018-02-14T02:14:14.264Z,-2.00
2018-02-14T02:16:40.474Z,-2.10
2018-02-14T02:19:06.718Z,-2.00
2018-02-14T02:21:32.990Z,-2.00
2018-02-14T02:23:59.264Z,-1.90
2018-02-14T02:26:25.530Z,-1.90
2018-02-14T02:28:51.810Z,-1.80
2018-02-14T02:31:18.830Z,-1.80
2018-02-14T02:33:45.143Z,-1.80
2018-02-14T02:36:11.417Z,-1.80
2018-02-14T02:38:37.695Z,-1.90
2018-02-14T02:41:03.975Z,-1.90
2018-02-14T02:43:30.970Z,-1.90
2018-02-14T02:45:57.280Z,-1.90
2018-02-14T02:48:23.553Z,-1.80
2018-02-14T02:50:49.850Z,-1.90
2018-02-14T02:53:16.141Z,-1.90
2018-02-14T02:55:43.163Z,-2.00
2018-02-14T02:58:09.419Z,-2.00
2018-02-14T03:00:36.475Z,-2.10
2018-02-14T03:03:02.735Z,-2.10
2018-02-14T03:05:29.016Z,-1.80
2018-02-14T03:07:56.039Z,-2.00
2018-02-14T03:10:22.317Z,-2.00
2018-02-14T03:12:48.647Z,-2.20
2018-02-14T03:15:14.952Z,-2.20
2018-02-14T03:17:41.240Z,-2.10
2018-02-14T03:20:07.535Z,-2.10
2018-02-14T03:22:33.797Z,-2.40
2018-02-14T03:25:00.082Z,-2.40
2018-02-14T03:27:26.367Z,-2.40
2018-02-14T03:29:52.636Z,-2.20
2018-02-14T03:32:19.686Z,-2.40
2018-02-14T03:34:45.962Z,-2.50
2018-02-14T03:37:12.315Z,-2.40
2018-02-14T03:39:39.343Z,-2.30
2018-02-14T03:42:05.643Z,-2.30
2018-02-14T03:44:31.925Z,-2.20
2018-02-14T03:46:58.969Z,-2.30
2018-02-14T03:49:25.982Z,-2.40
2018-02-14T03:51:52.273Z,-2.40
2018-02-14T03:54:18.526Z,-2.30
2018-02-14T03:56:44.814Z,-2.10
2018-02-14T03:59:11.828Z,-2.10
2018-02-14T04:01:38.127Z,-2.10
2018-02-14T04:04:04.387Z,-2.00
2018-02-14T04:06:30.662Z,-2.00
2018-02-14T04:08:57.128Z,-2.10
2018-02-14T04:11:23.432Z,-2.20
2018-02-14T04:13:49.706Z,-2.10
2018-02-14T04:16:17.490Z,-2.10
2018-02-14T04:18:44.523Z,-2.20
2018-02-14T04:21:10.780Z,-2.20
2018-02-14T04:23:37.817Z,-2.10
2018-02-14T04:26:04.845Z,-2.10
2018-02-14T04:28:31.125Z,-2.20
2018-02-14T04:30:58.134Z,-2.00
2018-02-14T04:33:24.405Z,-2.10
2018-02-14T04:35:50.661Z,-2.00
2018-02-14T04:38:16.932Z,-2.00
2018-02-14T04:40:43.943Z,-2.10
2018-02-14T04:43:10.217Z,-2.10
2018-02-14T04:45:37.231Z,-2.00
2018-02-14T04:48:03.512Z,-2.10
2018-02-14T04:50:29.776Z,-2.00
2018-02-14T04:52:56.064Z,-2.00
2018-02-14T04:55:23.063Z,-2.00
2018-02-14T04:57:49.337Z,-2.10
2018-02-14T05:00:16.342Z,-2.00
2018-02-14T05:02:42.689Z,-2.00
2018-02-14T05:05:09.707Z,-1.90
2018-02-14T05:07:36.002Z,-1.90
2018-02-14T05:10:02.305Z,-2.00
2018-02-14T05:12:29.309Z,-2.00
2018-02-14T05:14:55.582Z,-2.10
2018-02-14T05:17:22.587Z,-1.80
2018-02-14T05:19:48.880Z,-1.90
2018-02-14T05:22:15.151Z,-1.80
2018-02-14T05:24:41.432Z,-1.90
2018-02-14T05:27:07.719Z,-1.90
2018-02-14T05:29:34.778Z,-2.00
2018-02-14T05:32:01.816Z,-2.10
2018-02-14T05:34:28.844Z,-2.10
2018-02-14T05:36:55.117Z,-2.10
2018-02-14T05:39:22.136Z,-2.30
2018-02-14T05:41:49.156Z,-2.20
2018-02-14T05:44:15.428Z,-2.30
2018-02-14T05:46:42.437Z,-2.30
2018-02-14T05:49:08.713Z,-2.30
2018-02-14T05:51:35.742Z,-2.20
2018-02-14T05:54:02.017Z,-2.20
2018-02-14T05:56:28.281Z,-2.20
2018-02-14T05:58:55.320Z,-2.20
2018-02-14T06:01:21.582Z,-2.30
2018-02-14T06:03:48.598Z,-2.30
2018-02-14T06:06:14.899Z,-2.40
2018-02-14T06:08:41.204Z,-2.30
2018-02-14T06:11:07.508Z,-2.30
2018-02-14T06:13:33.770Z,-2.20
2018-02-14T06:16:00.120Z,-2.30
2018-02-14T06:18:26.381Z,-2.30
2018-02-14T06:20:52.668Z,-2.40
2018-02-14T06:23:18.934Z,-2.60
2018-02-14T06:25:45.202Z,-2.50
2018-02-14T06:28:11.584Z,-2.60
2018-02-14T06:30:37.899Z,-2.50
2018-02-14T06:33:04.218Z,-2.50
2018-02-14T06:35:30.490Z,-2.60
2018-02-14T06:37:57.534Z,-2.40
2018-02-14T06:40:23.808Z,-2.50
2018-02-14T06:42:50.136Z,-2.30
2018-02-14T06:45:16.422Z,-2.40
2018-02-14T06:47:44.184Z,-2.40
2018-02-14T06:50:10.457Z,-2.40
2018-02-14T06:52:36.806Z,-2.20
2018-02-14T06:55:03.098Z,-2.20
2018-02-14T06:57:29.371Z,-2.30
2018-02-14T06:59:55.639Z,-2.40
2018-02-14T07:02:21.927Z,-2.50
2018-02-14T07:04:48.197Z,-2.40
2018-02-14T07:07:14.483Z,-2.30
2018-02-14T07:09:40.754Z,-2.40
2018-02-14T07:12:07.025Z,-2.40
2018-02-14T07:14:33.312Z,-2.40
2018-02-14T07:16:59.593Z,-2.30
2018-02-14T07:19:25.860Z,-2.20
2018-02-14T07:21:52.138Z,-2.10
2018-02-14T07:24:18.424Z,-2.10
2018-02-14T07:26:44.715Z,-2.10
2018-02-14T07:29:11.040Z,-1.90
2018-02-14T07:31:38.031Z,-1.70
2018-02-14T07:34:04.296Z,-1.80
2018-02-14T07:36:31.571Z,-1.80
2018-02-14T07:38:57.850Z,-1.90
2018-02-14T07:41:24.134Z,-1.80
2018-02-14T07:43:50.407Z,-1.60
2018-02-14T07:46:16.693Z,-1.60
2018-02-14T07:48:42.965Z,-1.50
2018-02-14T07:51:09.215Z,-1.50
2018-02-14T07:53:36.252Z,-1.40
2018-02-14T07:56:02.542Z,-1.50
2018-02-14T07:58:29.055Z,-1.50
2018-02-14T08:00:55.732Z,-1.30
2018-02-14T08:03:21.996Z,-1.20
2018-02-14T08:05:48.995Z,-1.30
2018-02-14T08:08:15.258Z,-1.30
2018-02-14T08:10:42.264Z,-1.20
2018-02-14T08:13:08.599Z,-1.30
2018-02-14T08:15:34.925Z,-1.20
2018-02-14T08:18:01.229Z,-1.20
2018-02-14T08:20:27.496Z,-1.30
2018-02-14T08:22:53.761Z,-1.40
2018-02-14T08:25:20.031Z,-1.10
2018-02-14T08:27:46.328Z,-1.00
2018-02-14T08:30:12.630Z,-0.90
2018-02-14T08:32:38.937Z,-0.90
2018-02-14T08:35:05.244Z,-1.00
2018-02-14T08:37:31.493Z,-0.90
2018-02-14T08:39:57.775Z,-0.80
2018-02-14T08:42:24.787Z,-0.80
2018-02-14T08:44:51.806Z,-0.70
2018-02-14T08:47:18.096Z,-0.70
2018-02-14T08:49:45.112Z,-0.80
2018-02-14T08:52:12.863Z,-0.70
2018-02-14T08:54:39.144Z,-0.70
2018-02-14T08:57:06.142Z,-0.60
2018-02-14T08:59:32.400Z,-0.60
2018-02-14T09:01:58.659Z,-0.50
2018-02-14T09:04:24.970Z,-0.30
2018-02-14T09:06:51.982Z,-0.10
2018-02-14T09:09:18.247Z,-0.20
2018-02-14T09:11:45.264Z,-0.20
2018-02-14T09:14:11.555Z,-0.30
2018-02-14T09:16:37.949Z,-0.20
2018-02-14T09:19:04.288Z,-0.10
2018-02-14T09:21:31.298Z,-0.10
2018-02-14T09:23:57.711Z,-0.10
2018-02-14T09:26:23.992Z,0.10
2018-02-14T09:28:50.259Z,0.20
2018-02-14T09:31:16.523Z,0.20
2018-02-14T09:33:42.780Z,0.40
2018-02-14T09:36:09.065Z,0.60
2018-02-14T09:38:35.329Z,0.50
2018-02-14T09:41:02.359Z,0.50
2018-02-14T09:43:28.673Z,0.50
2018-02-14T09:45:54.932Z,0.60
2018-02-14T09:48:21.921Z,0.90
2018-02-14T09:50:48.219Z,0.80
2018-02-14T09:53:14.496Z,0.90
2018-02-14T09:55:40.764Z,1.10
2018-02-14T09:58:07.792Z,1.10
2018-02-14T10:00:34.051Z,1.00
2018-02-14T10:03:01.045Z,1.30
2018-02-14T10:05:27.315Z,1.30
2018-02-14T10:07:54.318Z,1.50
2018-02-14T10:10:20.570Z,1.40
2018-02-14T10:12:46.878Z,1.50
2018-02-14T10:15:13.126Z,1.40
2018-02-14T10:17:39.391Z,1.70
2018-02-14T10:20:06.398Z,2.00
2018-02-14T10:22:32.690Z,1.90
2018-02-14T10:24:58.950Z,1.80
2018-02-14T10:27:25.212Z,2.00
2018-02-14T10:29:52.216Z,2.00
2018-02-14T10:32:18.483Z,1.90
2018-02-14T10:34:45.483Z,2.20
2018-02-14T10:37:12.496Z,2.10
2018-02-14T10:39:39.487Z,2.30
2018-02-14T10:42:05.750Z,2.30
2018-02-14T10:44:32.759Z,2.30
2018-02-14T10:46:59.016Z,2.20
2018-02-14T10:49:26.091Z,2.50
2018-02-14T10:51:52.321Z,2.40
2018-02-14T10:54:19.324Z,2.80
2018-02-14T10:56:45.640Z,2.80
2018-02-14T10:59:11.901Z,2.70
2018-02-14T11:01:45.001Z,2.90
2018-02-14T11:04:18.115Z,3.00
2018-02-14T11:06:44.404Z,2.90
2018-02-14T11:09:10.673Z,2.80
2018-02-14T11:11:36.932Z,3.00
2018-02-14T11:14:03.206Z,3.10
2018-02-14T11:16:29.504Z,3.00
2018-02-14T11:18:55.766Z,3.10
2018-02-14T11:21:22.859Z,3.30
2018-02-14T11:23:49.117Z,3.20
2018-02-14T11:26:16.957Z,3.20
2018-02-14T11:28:43.206Z,3.20
2018-02-14T11:31:09.465Z,3.40
2018-02-14T11:33:36.491Z,3.40
2018-02-14T11:36:02.809Z,3.40
2018-02-14T11:38:29.071Z,3.50
2018-02-14T11:40:56.094Z,3.70
2018-02-14T11:43:22.373Z,3.70
2018-02-14T11:45:48.631Z,3.60
2018-02-14T11:48:14.921Z,3.80
2018-02-14T11:50:41.196Z,3.80
2018-02-14T11:53:07.487Z,3.90
2018-02-14T11:55:33.767Z,3.90
2018-02-14T11:58:00.812Z,4.00
2018-02-14T12:00:27.087Z,3.90
2018-02-14T12:02:53.360Z,4.00
2018-02-14T12:05:19.621Z,4.10
2018-02-14T12:07:46.666Z,4.00
2018-02-14T12:10:13.675Z,4.00
2018-02-14T12:12:39.951Z,4.00
2018-02-14T12:15:06.960Z,4.00
2018-02-14T12:17:33.244Z,4.00
2018-02-14T12:19:59.499Z,4.00
2018-02-14T12:22:25.746Z,4.20
2018-02-14T12:24:52.012Z,4.10
2018-02-14T12:27:19.004Z,4.40
2018-02-14T12:29:45.274Z,4.40
2018-02-14T12:32:12.289Z,4.30
2018-02-14T12:34:38.554Z,4.30
2018-02-14T12:37:05.557Z,4.40
2018-02-14T12:39:31.839Z,4.40
2018-02-14T12:41:58.842Z,4.60
2018-02-14T12:44:25.150Z,4.50
2018-02-14T12:46:51.400Z,4.70
2018-02-14T12:49:19.158Z,5.00
2018-02-14T12:51:45.422Z,5.10
2018-02-14T12:54:12.443Z,5.50
2018-02-14T12:56:38.734Z,5.50
2018-02-14T12:59:05.031Z,5.90
2018-02-14T13:01:32.054Z,6.20
2018-02-14T13:03:58.334Z,6.10
2018-02-14T13:06:24.578Z,6.20
2018-02-14T13:08:50.847Z,6.30
2018-02-14T13:11:17.871Z,6.90
2018-02-14T13:13:44.138Z,6.80
2018-02-14T13:16:11.143Z,7.00
2018-02-14T13:18:37.409Z,6.90
2018-02-14T13:21:04.419Z,6.90
2018-02-14T13:23:30.663Z,6.80
2018-02-14T13:25:56.956Z,7.10
2018-02-14T13:28:23.228Z,7.10
2018-02-14T13:30:49.498Z,7.40
2018-02-14T13:33:15.746Z,7.90
2018-02-14T13:35:42.056Z,8.70
2018-02-14T13:38:08.315Z,8.80
2018-02-14T13:40:34.574Z,9.10
2018-02-14T13:43:00.827Z,8.90
2018-02-14T13:45:27.838Z,8.90
2018-02-14T13:47:54.097Z,8.80
2018-02-14T13:50:21.122Z,8.90
2018-02-14T13:52:47.389Z,8.90
2018-02-14T13:55:14.404Z,9.70
2018-02-14T13:57:40.681Z,9.70
2018-02-14T14:00:06.947Z,9.90
2018-02-14T14:02:33.210Z,9.80
2018-02-14T14:05:00.236Z,9.90
2018-02-14T14:07:26.524Z,9.90
2018-02-14T14:09:52.789Z,9.90
2018-02-14T14:12:19.867Z,9.30
2018-02-14T14:14:46.881Z,9.30
2018-02-14T14:17:13.146Z,9.30
2018-02-14T14:19:39.425Z,9.40
2018-02-14T14:22:05.701Z,9.50
2018-02-14T14:24:31.960Z,9.60
2018-02-14T14:26:58.231Z,9.80
2018-02-14T14:29:24.495Z,10.10
2018-02-14T14:31:50.781Z,10.30
2018-02-14T14:34:18.521Z,10.30
2018-02-14T14:36:44.818Z,10.30
2018-02-14T14:39:11.104Z,10.50
2018-02-14T14:41:37.573Z,10.10
2018-02-14T14:44:03.921Z,10.20
2018-02-14T14:46:30.204Z,10.00
2018-02-14T14:48:56.483Z,10.10
2018-02-14T14:51:22.761Z,10.40
2018-02-14T14:53:49.020Z,10.40
2018-02-14T14:56:16.034Z,10.80
2018-02-14T14:58:42.309Z,10.70
2018-02-14T15:01:08.589Z,10.80
2018-02-14T15:03:34.849Z,10.20
2018-02-14T15:06:01.116Z,10.00
2018-02-14T15:08:27.381Z,10.30
2018-02-14T15:10:54.396Z,10.80
2018-02-14T15:13:20.673Z,10.80
2018-02-14T15:15:47.675Z,11.30
2018-02-14T15:18:13.948Z,11.30
2018-02-14T15:20:40.962Z,11.40
2018-02-14T15:23:07.228Z,11.40
2018-02-14T15:25:33.521Z,10.60
2018-02-14T15:27:59.787Z,10.90
2018-02-14T15:30:26.080Z,10.80
2018-02-14T15:32:52.374Z,10.50
2018-02-14T15:35:18.663Z,10.80
2018-02-14T15:37:45.686Z,9.30
2018-02-14T15:40:12.011Z,9.20
2018-02-14T15:42:38.247Z,9.20
2018-02-14T15:45:04.511Z,9.20
2018-02-14T15:47:31.564Z,9.00
2018-02-14T15:49:57.851Z,8.90
2018-02-14T15:52:24.129Z,8.50
2018-02-14T15:54:50.417Z,7.70
2018-02-14T15:57:16.700Z,7.20
2018-02-14T15:59:42.974Z,6.70
2018-02-14T16:02:09.249Z,6.30
2018-02-14T16:04:35.563Z,6.00
2018-02-14T16:07:02.578Z,5.60
2018-02-14T16:09:28.844Z,5.60
2018-02-14T16:11:55.860Z,5.10
2018-02-14T16:14:22.262Z,5.00
2018-02-14T16:16:48.511Z,4.80
2018-02-14T16:19:14.822Z,4.70
2018-02-14T16:21:41.110Z,4.60
2018-02-14T16:24:07.399Z,4.40
2018-02-14T16:26:33.676Z,4.20
2018-02-14T16:28:59.968Z,4.20
2018-02-14T16:31:26.236Z,3.90
2018-02-14T16:33:52.500Z,3.80
2018-02-14T16:36:18.762Z,3.80
2018-02-14T16:38:45.056Z,3.60
2018-02-14T16:41:11.314Z,3.40
2018-02-14T16:43:37.584Z,3.30
2018-02-14T16:46:03.874Z,3.20
2018-02-14T16:48:30.139Z,3.00
2018-02-14T16:50:56.427Z,3.10
2018-02-14T16:53:22.694Z,2.90
2018-02-14T16:55:48.988Z,3.00
2018-02-14T16:58:15.281Z,3.00
2018-02-14T17:00:41.620Z,2.90
2018-02-14T17:03:07.903Z,2.90
2018-02-14T17:05:34.231Z,2.60
2018-02-14T17:08:00.504Z,2.60
2018-02-14T17:10:26.795Z,2.50
2018-02-14T17:12:53.090Z,2.40
2018-02-14T17:15:20.143Z,2.40
2018-02-14T17:17:46.448Z,2.30
2018-02-14T17:20:13.507Z,2.10
2018-02-14T17:22:39.766Z,2.10
2018-02-14T17:25:06.039Z,2.10
2018-02-14T17:27:32.316Z,2.00
2018-02-14T17:29:58.595Z,2.30
2018-02-14T17:32:24.858Z,2.40
2018-02-14T17:34:51.120Z,2.10
2018-02-14T17:37:18.118Z,2.00
2018-02-14T17:39:44.391Z,2.00
2018-02-14T17:42:11.413Z,1.80
2018-02-14T17:44:37.664Z,1.80
2018-02-14T17:47:04.691Z,1.60
2018-02-14T17:49:30.962Z,1.60
2018-02-14T17:51:57.262Z,1.70
2018-02-14T17:54:24.303Z,1.80
2018-02-14T17:56:51.336Z,1.90
2018-02-14T17:59:17.588Z,1.80
2018-02-14T18:01:44.594Z,1.90
2018-02-14T18:04:10.832Z,1.90
2018-02-14T18:06:37.121Z,1.80
2018-02-14T18:09:03.411Z,2.10
2018-02-14T18:11:30.485Z,1.90
2018-02-14T18:13:56.734Z,1.90
2018-02-14T18:16:22.999Z,1.70
2018-02-14T18:18:49.272Z,1.60
2018-02-14T18:21:16.284Z,1.50
2018-02-14T18:23:42.556Z,1.50
2018-02-14T18:26:08.875Z,1.70
2018-02-14T18:28:35.912Z,1.60
2018-02-14T18:31:02.923Z,1.70
2018-02-14T18:33:29.399Z,1.70
2018-02-14T18:35:56.384Z,1.60
2018-02-14T18:38:22.663Z,1.50
2018-02-14T18:40:49.676Z,1.60
2018-02-14T18:43:15.940Z,1.50
2018-02-14T18:45:42.203Z,1.50
2018-02-14T18:48:08.463Z,1.40
2018-02-14T18:50:34.711Z,1.50
2018-02-14T18:53:00.976Z,1.50
2018-02-14T18:55:27.268Z,1.50
2018-02-14T18:57:54.507Z,1.30
2018-02-14T19:00:20.800Z,1.20
2018-02-14T19:02:47.083Z,1.20
2018-02-14T19:05:13.350Z,1.40
2018-02-14T19:07:39.645Z,1.30
2018-02-14T19:10:06.664Z,1.20
2018-02-14T19:12:32.929Z,1.10
2018-02-14T19:14:59.934Z,1.20
2018-02-14T19:17:26.192Z,1.20
2018-02-14T19:19:52.467Z,1.10
2018-02-14T19:22:18.749Z,1.30
2018-02-14T19:24:45.769Z,1.20
2018-02-14T19:27:12.029Z,1.10
2018-02-14T19:29:39.068Z,1.10
2018-02-14T19:32:05.336Z,1.10
2018-02-14T19:34:31.612Z,1.20
2018-02-14T19:36:57.881Z,1.10
2018-02-14T19:39:24.903Z,1.30
2018-02-14T19:41:51.332Z,1.20
2018-02-14T19:44:18.355Z,1.20
2018-02-14T19:46:44.615Z,1.10
2018-02-14T19:49:10.900Z,1.20
2018-02-14T19:51:37.168Z,1.30
2018-02-14T19:54:03.469Z,1.30
2018-02-14T19:56:29.732Z,1.20
2018-02-14T19:58:56.011Z,1.20
2018-02-14T20:01:22.279Z,1.10
2018-02-14T20:03:48.527Z,1.10
2018-02-14T20:06:15.556Z,1.20
2018-02-14T20:08:41.817Z,1.10
2018-02-14T20:11:08.088Z,1.20
2018-02-14T20:13:34.342Z,1.00
2018-02-14T20:16:00.594Z,1.10
2018-02-14T20:18:27.985Z,1.00
2018-02-14T20:20:55.204Z,1.00
2018-02-14T20:23:22.494Z,1.10
2018-02-14T20:25:48.836Z,1.10
2018-02-14T20:28:15.667Z,1.00
2018-02-14T20:30:42.203Z,1.10
2018-02-14T20:33:08.544Z,1.00
2018-02-14T20:35:34.848Z,1.00
2018-02-14T20:38:01.165Z,1.40
2018-02-14T20:40:28.036Z,1.10
2018-02-14T20:42:54.316Z,0.90
2018-02-14T20:45:20.621Z,1.00
2018-02-14T20:47:47.130Z,0.90
2018-02-14T20:50:13.508Z,1.00
2018-02-14T20:52:40.527Z,1.00
2018-02-14T20:55:06.939Z,1.00
2018-02-14T20:57:33.681Z,0.90
2018-02-14T21:00:00.028Z,0.90
2018-02-14T21:02:26.602Z,0.80
2018-02-14T21:04:53.590Z,0.80
2018-02-14T21:07:19.902Z,0.70
2018-02-14T21:09:46.305Z,0.80
2018-02-14T21:12:13.401Z,0.80
2018-02-14T21:14:39.818Z,0.80
2018-02-14T21:17:06.168Z,0.80
2018-02-14T21:19:32.449Z,0.70
2018-02-14T21:21:59.519Z,0.50
2018-02-14T21:24:26.026Z,0.50
2018-02-14T21:26:52.390Z,0.50
2018-02-14T21:29:18.692Z,0.50
2018-02-14T21:31:45.737Z,0.50
2018-02-14T21:34:12.758Z,0.50
2018-02-14T21:36:39.822Z,0.40
2018-02-14T21:39:06.824Z,0.50
2018-02-14T21:41:33.108Z,0.40
2018-02-14T21:43:59.427Z,0.50
2018-02-14T21:46:26.451Z,0.40
2018-02-14T21:48:52.703Z,0.30
2018-02-14T21:51:18.999Z,0.40
2018-02-14T21:53:45.284Z,0.40
2018-02-14T21:56:11.573Z,0.50
2018-02-14T21:58:38.595Z,0.50
2018-02-14T22:01:04.855Z,0.40
2018-02-14T22:03:31.883Z,0.30
2018-02-14T22:05:58.142Z,0.30
2018-02-14T22:08:25.172Z,0.30
2018-02-14T22:10:51.465Z,0.20
2018-02-14T22:13:17.911Z,0.30
2018-02-14T22:15:44.240Z,0.40
2018-02-14T22:18:10.533Z,0.30
2018-02-14T22:20:36.815Z,0.30
2018-02-14T22:23:03.121Z,0.40
2018-02-14T22:25:29.400Z,0.40
2018-02-14T22:27:56.810Z,0.40
2018-02-14T22:30:23.080Z,0.40
2018-02-14T22:32:50.133Z,0.40
2018-02-14T22:35:17.139Z,0.30
2018-02-14T22:37:43.410Z,0.30
2018-02-14T22:40:10.432Z,0.40
2018-02-14T22:42:36.736Z,0.40
2018-02-14T22:45:03.027Z,0.40
2018-02-14T22:47:29.323Z,0.20
2018-02-14T22:49:55.621Z,0.30
2018-02-14T22:52:21.904Z,0.30
2018-02-14T22:54:48.958Z,0.10
2018-02-14T22:57:15.252Z,0.10
2018-02-14T22:59:41.537Z,0.20
2018-02-14T23:02:07.861Z,0.30
2018-02-14T23:04:34.171Z,0.20
2018-02-14T23:07:01.178Z,0.20
2018-02-14T23:09:27.472Z,0.20
2018-02-14T23:11:53.747Z,0.20
2018-02-14T23:14:20.054Z,0.10
2018-02-14T23:16:46.311Z,0.10
2018-02-14T23:19:12.587Z,0.30
2018-02-14T23:21:38.858Z,0.30
2018-02-14T23:24:05.145Z,0.20
2018-02-14T23:26:31.426Z,0.20
2018-02-14T23:28:57.708Z,0.10
2018-02-14T23:31:23.991Z,0.00
2018-02-14T23:33:50.263Z,0.00
2018-02-14T23:36:16.520Z,0.00
2018-02-14T23:38:42.818Z,0.10
2018-02-14T23:41:09.104Z,0.00
2018-02-14T23:43:35.379Z,0.00
2018-02-14T23:46:01.706Z,0.00
2018-02-14T23:48:28.683Z,0.00
2018-02-14T23:50:54.963Z,-0.10
2018-02-14T23:53:21.975Z,-0.10
2018-02-14T23:55:48.265Z,-0.10
2018-02-14T23:58:14.546Z,-0.10
